Time;durP1;ratioP1;P1;durP2;ratioP2;P2;SDS_P1;SDS_P2;PMS_P1;PMS_P2;Temp;Humidity;BMP_temperature;BMP_pressure;BME280_temperature;BME280_humidity;BME280_pressure;Samples;Min_cycle;Max_cycle;Signal;HPM_P1;HPM_P2
2022/08/09 00:01:01;;;;;;;3.60;3.08;;;;;;;18.12;87.42;97024.41;5054631;28;20217;-51
2022/08/09 00:03:29;;;;;;;3.28;3.08;;;;;;;18.08;87.44;97020.41;5054251;28;20221;-51
2022/08/09 00:05:58;;;;;;;3.50;3.20;;;;;;;18.10;87.27;97018.41;5054738;28;20290;-50
2022/08/09 00:08:26;;;;;;;3.13;2.92;;;;;;;18.05;87.72;97013.59;5054732;28;20203;-51
2022/08/09 00:10:52;;;;;;;3.80;3.50;;;;;;;18.09;86.96;97027.44;5054682;28;20297;-51
2022/08/09 00:13:25;;;;;;;3.50;3.30;;;;;;;18.03;87.27;97025.50;5054483;28;20605;-51
2022/08/09 00:15:54;;;;;;;4.37;3.60;;;;;;;18.09;85.59;97027.44;5052895;28;20309;-53
2022/08/09 00:18:21;;;;;;;3.50;3.10;;;;;;;18.06;86.12;97023.28;5054795;28;20477;-51
2022/08/09 00:20:48;;;;;;;4.70;3.05;;;;;;;18.00;87.85;97025.84;5054608;28;20266;-51
2022/08/09 00:23:15;;;;;;;4.28;3.45;;;;;;;17.97;88.57;97027.03;5053817;28;20603;-50
2022/08/09 00:25:42;;;;;;;3.70;3.40;;;;;;;17.93;88.77;97023.03;5054178;28;20628;-51
2022/08/09 00:28:09;;;;;;;3.65;3.35;;;;;;;17.90;89.07;97023.41;5054517;28;20305;-51
2022/08/09 00:30:37;;;;;;;3.63;3.40;;;;;;;17.87;88.89;97021.09;5074841;28;20199;-51
2022/08/09 00:33:04;;;;;;;3.65;3.35;;;;;;;17.90;88.96;97018.91;5074672;28;20219;-52
2022/08/09 00:35:32;;;;;;;3.50;3.30;;;;;;;17.96;88.32;97016.53;5065959;28;20258;-50
2022/08/09 00:38:01;;;;;;;3.50;3.20;;;;;;;17.92;88.86;97023.25;5053966;28;20215;-51
2022/08/09 00:40:28;;;;;;;5.63;3.42;;;;;;;17.86;88.78;97025.63;5054229;28;20545;-51
2022/08/09 00:42:55;;;;;;;3.60;3.40;;;;;;;17.92;88.02;97025.91;5053385;28;20203;-50
2022/08/09 00:45:24;;;;;;;3.45;3.25;;;;;;;17.85;89.04;97021.25;5054471;28;20694;-51
2022/08/09 00:47:55;;;;;;;3.20;2.90;;;;;;;17.90;88.31;97020.72;5053832;28;20674;-51
2022/08/09 00:50:21;;;;;;;3.42;3.20;;;;;;;17.82;88.94;97021.63;5054292;28;20632;-50
2022/08/09 00:52:49;;;;;;;3.78;3.20;;;;;;;17.78;89.35;97020.31;5041297;28;20294;-51
2022/08/09 00:55:16;;;;;;;3.97;3.40;;;;;;;17.82;88.63;97016.28;5053046;28;20559;-50
2022/08/09 00:57:44;;;;;;;4.63;3.40;;;;;;;17.76;88.91;97014.31;5054017;28;20280;-51
2022/08/09 01:00:14;;;;;;;3.60;3.40;;;;;;;17.73;88.98;97027.22;5053952;28;20744;-51
2022/08/09 01:02:50;;;;;;;5.90;3.20;;;;;;;17.74;88.38;97019.03;5054232;28;20266;-50
2022/08/09 01:05:24;;;;;;;3.72;3.42;;;;;;;17.74;88.32;97029.72;5054266;28;20205;-51
2022/08/09 01:07:55;;;;;;;3.65;3.33;;;;;;;17.72;88.81;97031.72;5053926;28;20293;-50
2022/08/09 01:10:29;;;;;;;3.42;3.22;;;;;;;17.72;88.48;97021.03;5055874;28;20299;-51
2022/08/09 01:13:02;;;;;;;5.15;3.00;;;;;;;17.62;89.14;97036.50;5057773;28;20262;-51
2022/08/09 01:15:31;;;;;;;3.40;3.20;;;;;;;17.66;88.17;97032.47;5045487;28;20257;-50
2022/08/09 01:18:01;;;;;;;3.65;3.45;;;;;;;17.72;87.81;97034.41;5057707;28;20290;-51
2022/08/09 01:20:36;;;;;;;3.45;3.25;;;;;;;17.72;87.83;97034.41;5057663;28;20203;-50
2022/08/09 01:23:17;;;;;;;3.23;3.03;;;;;;;17.73;87.51;97032.56;5057096;28;20207;-51
2022/08/09 01:25:57;;;;;;;3.43;3.13;;;;;;;17.69;88.57;97029.41;5057613;28;20230;-51
2022/08/09 01:28:25;;;;;;;3.40;3.20;;;;;;;17.66;88.70;97032.47;5057778;28;20286;-51
2022/08/09 01:30:54;;;;;;;3.75;3.40;;;;;;;17.76;87.73;97042.91;5057362;28;20209;-51
2022/08/09 01:33:22;;;;;;;3.15;2.92;;;;;;;17.77;87.66;97034.72;5057304;28;20235;-51
2022/08/09 01:35:52;;;;;;;3.08;2.88;;;;;;;17.71;88.22;97038.09;5057372;28;20314;-51
2022/08/09 01:38:23;;;;;;;3.67;3.38;;;;;;;17.72;88.12;97039.75;5044878;28;20235;-50
2022/08/09 01:40:56;;;;;;;3.70;3.40;;;;;;;17.70;87.63;97033.78;5057639;28;20243;-52
2022/08/09 01:43:23;;;;;;;3.60;3.38;;;;;;;17.69;88.21;97032.09;5049157;28;20239;-51
2022/08/09 01:45:51;;;;;;;3.40;3.13;;;;;;;17.66;88.49;97035.13;5052231;28;20334;-50
2022/08/09 01:48:19;;;;;;;3.53;3.22;;;;;;;17.58;88.88;97037.84;5057299;28;20298;-51
2022/08/09 01:50:48;;;;;;;3.70;3.40;;;;;;;17.59;89.14;97033.34;5057348;28;20289;-50
2022/08/09 01:53:16;;;;;;;3.70;3.40;;;;;;;17.56;89.07;97036.34;5056615;28;20267;-51
2022/08/09 01:55:43;;;;;;;3.53;3.33;;;;;;;17.52;89.19;97035.84;5056305;28;20238;-51
2022/08/09 01:58:10;;;;;;;3.47;3.27;;;;;;;17.48;89.27;97039.88;5056922;28;20574;-50
2022/08/09 02:00:37;;;;;;;3.50;3.30;;;;;;;17.40;90.32;97039.94;5052832;28;20601;-50
2022/08/09 02:03:05;;;;;;;3.93;3.43;;;;;;;17.33;90.81;97044.31;5047921;28;20303;-51
2022/08/09 02:05:33;;;;;;;3.33;3.13;;;;;;;17.31;89.28;97041.00;5056203;28;20290;-51
2022/08/09 02:08:02;;;;;;;3.20;3.00;;;;;;;17.23;90.40;97041.88;5056342;28;20294;-51
2022/08/09 02:10:39;;;;;;;3.50;3.30;;;;;;;17.18;90.50;97032.72;5056915;28;20249;-50
2022/08/09 02:13:07;;;;;;;4.00;3.60;;;;;;;17.20;89.46;97030.69;5056496;28;20650;-51
2022/08/09 02:15:36;;;;;;;3.53;3.30;;;;;;;17.13;90.89;97041.25;5055052;28;20337;-50
2022/08/09 02:18:06;;;;;;;3.80;3.50;;;;;;;17.13;90.90;97035.06;5056591;28;20250;-49
2022/08/09 02:20:34;;;;;;;3.30;3.10;;;;;;;17.07;91.65;97030.44;5056535;28;20600;-51
2022/08/09 02:23:06;;;;;;;3.50;3.10;;;;;;;17.04;92.92;97039.59;5055957;28;20210;-51
2022/08/09 02:25:35;;;;;;;4.03;3.50;;;;;;;16.92;93.41;97039.16;5055446;28;20199;-51
2022/08/09 02:28:06;;;;;;;4.20;3.27;;;;;;;16.89;92.75;97039.50;5055742;28;20211;-52
2022/08/09 02:30:36;;;;;;;3.77;3.47;;;;;;;16.86;93.04;97041.69;5055988;28;20258;-50
2022/08/09 02:33:05;;;;;;;4.13;3.73;;;;;;;16.85;92.81;97045.38;5056404;28;20210;-51
2022/08/09 02:35:36;;;;;;;3.70;3.50;;;;;;;16.80;93.88;97051.22;5056418;28;20322;-52
2022/08/09 02:38:05;;;;;;;3.80;3.50;;;;;;;16.82;92.75;97049.22;5072185;28;20190;-52
2022/08/09 02:40:33;;;;;;;3.50;3.30;;;;;;;16.82;92.30;97043.88;5063958;28;20250;-51
2022/08/09 02:43:01;;;;;;;3.50;3.30;;;;;;;16.72;93.29;97043.22;5075343;28;20229;-51
2022/08/09 02:45:30;;;;;;;4.80;3.90;;;;;;;16.72;92.41;97043.22;5073626;28;20262;-52
2022/08/09 02:48:02;;;;;;;3.50;3.30;;;;;;;16.74;92.91;97041.22;5061188;28;20245;-51
2022/08/09 02:50:35;;;;;;;4.07;3.73;;;;;;;16.74;91.91;97045.72;5059811;28;20214;-51
2022/08/09 02:53:05;;;;;;;4.83;3.93;;;;;;;16.77;92.18;97053.41;5043703;28;20217;-50
2022/08/09 02:55:33;;;;;;;3.83;3.53;;;;;;;16.77;92.30;97045.38;5056412;28;20237;-51
2022/08/09 02:58:00;;;;;;;3.90;3.60;;;;;;;16.75;92.67;97042.91;5057386;28;20261;-52
2022/08/09 03:00:28;;;;;;;3.70;3.40;;;;;;;16.76;92.06;97044.53;5056690;28;20294;-50
2022/08/09 03:02:55;;;;;;;4.83;3.70;;;;;;;16.79;92.00;97035.38;5056740;28;20282;-51
2022/08/09 03:05:23;;;;;;;3.77;3.57;;;;;;;16.79;91.09;97038.84;5055514;28;20731;-51
2022/08/09 03:07:53;;;;;;;3.70;3.40;;;;;;;16.84;91.11;97038.34;5050159;28;20271;-51
2022/08/09 03:10:20;;;;;;;4.00;3.70;;;;;;;16.88;90.52;97037.00;5071072;28;20191;-50
2022/08/09 03:12:49;;;;;;;3.70;3.40;;;;;;;16.90;89.97;97030.47;5078129;28;20183;-51
2022/08/09 03:15:19;;;;;;;3.80;3.50;;;;;;;16.90;90.76;97029.63;5078543;28;20195;-51
2022/08/09 03:17:48;;;;;;;3.67;3.30;;;;;;;16.92;89.64;97036.50;5079003;28;20200;-50
2022/08/09 03:20:18;;;;;;;3.47;3.27;;;;;;;16.95;88.24;97031.81;5079090;28;20210;-51
2022/08/09 03:22:46;;;;;;;3.20;3.10;;;;;;;16.95;89.07;97031.81;5077449;28;20209;-52
2022/08/09 03:25:17;;;;;;;4.20;3.80;;;;;;;16.87;90.07;97032.66;5077643;28;20183;-59
2022/08/09 03:27:49;;;;;;;3.70;3.40;;;;;;;16.91;88.08;97037.50;5078794;28;20168;-50
2022/08/09 03:30:16;;;;;;;3.70;3.40;;;;;;;16.90;88.92;97034.97;5078576;28;20175;-51
2022/08/09 03:32:45;;;;;;;4.13;3.30;;;;;;;16.96;87.73;97033.47;5077995;28;20198;-51
2022/08/09 03:35:11;;;;;;;3.40;3.20;;;;;;;16.92;87.73;97033.81;5071807;28;20655;-50
2022/08/09 03:37:38;;;;;;;3.57;3.33;;;;;;;16.81;89.59;97044.88;5055048;28;20330;-51
2022/08/09 03:40:06;;;;;;;3.53;3.33;;;;;;;16.79;88.07;97030.84;5054773;28;20211;-50
2022/08/09 03:42:34;;;;;;;5.67;3.40;;;;;;;16.71;90.84;97038.06;5055003;28;20203;-50
2022/08/09 03:45:02;;;;;;;3.47;3.27;;;;;;;16.66;90.40;97038.56;5054355;28;20695;-50
2022/08/09 03:47:29;;;;;;;3.33;3.13;;;;;;;16.66;90.75;97038.56;5053112;28;20519;-51
2022/08/09 03:49:57;;;;;;;3.40;3.20;;;;;;;16.69;89.43;97048.91;5054855;28;20593;-51
2022/08/09 03:52:29;;;;;;;3.40;3.20;;;;;;;16.68;90.12;97051.78;5055022;28;20211;-51
2022/08/09 03:54:56;;;;;;;4.23;3.70;;;;;;;16.63;91.99;97054.09;5054364;28;20196;-50
2022/08/09 03:57:23;;;;;;;5.03;3.33;;;;;;;16.56;91.83;97053.94;5054237;28;20623;-50
2022/08/09 03:59:52;;;;;;;3.77;3.43;;;;;;;16.51;91.98;97055.44;5054322;28;20704;-50
2022/08/09 04:02:21;;;;;;;4.07;3.77;;;;;;;16.48;91.69;97059.25;5053371;28;20203;-51
2022/08/09 04:04:49;;;;;;;4.50;3.33;;;;;;;16.46;92.96;97066.63;5054273;28;20199;-52
2022/08/09 04:07:16;;;;;;;3.60;3.30;;;;;;;16.51;92.88;97063.47;5054350;28;20210;-51
2022/08/09 04:09:43;;;;;;;3.73;3.43;;;;;;;16.48;92.25;97067.28;5053675;28;20635;-51
2022/08/09 04:12:25;;;;;;;3.50;3.30;;;;;;;16.54;91.20;97076.47;5054612;28;20294;-51
2022/08/09 04:14:54;;;;;;;3.73;3.53;;;;;;;16.42;92.97;97067.97;5042677;28;20350;-51
2022/08/09 04:17:20;;;;;;;3.90;3.50;;;;;;;16.37;93.03;97064.94;5054853;28;20231;-50
2022/08/09 04:19:49;;;;;;;3.63;3.30;;;;;;;16.40;92.76;97070.78;5041113;28;20299;-51
2022/08/09 04:22:15;;;;;;;3.73;3.40;;;;;;;16.40;93.16;97069.97;5054330;28;20238;-51
2022/08/09 04:24:42;;;;;;;4.00;3.40;;;;;;;16.39;93.33;97071.81;5052661;28;20293;-50
2022/08/09 04:27:09;;;;;;;3.80;3.50;;;;;;;16.39;93.13;97073.66;5054424;28;20217;-50
2022/08/09 04:29:35;;;;;;;3.97;3.67;;;;;;;16.39;93.06;97076.31;5054256;28;20692;-50
2022/08/09 04:32:09;;;;;;;3.93;3.63;;;;;;;16.40;92.88;97080.66;5053163;28;20281;-50
2022/08/09 04:34:38;;;;;;;5.17;3.93;;;;;;;16.44;92.16;97076.63;5054447;28;20203;-50
2022/08/09 04:37:04;;;;;;;4.40;4.10;;;;;;;16.39;91.89;97079.81;5054366;28;20659;-51
2022/08/09 04:39:33;;;;;;;4.30;4.00;;;;;;;16.39;91.81;97087.00;5053806;28;20297;-50
2022/08/09 04:42:00;;;;;;;4.23;3.83;;;;;;;16.58;91.73;97086.66;5053822;28;20218;-51
2022/08/09 04:44:27;;;;;;;4.23;3.83;;;;;;;16.63;91.87;97081.63;5041112;28;20261;-51
2022/08/09 04:46:54;;;;;;;4.00;3.67;;;;;;;16.74;91.88;97086.63;5079112;28;20235;-52
2022/08/09 04:49:22;;;;;;;6.67;5.93;;;;;;;16.83;90.99;97093.59;5076994;28;20222;-52
2022/08/09 04:51:51;;;;;;;4.73;4.33;;;;;;;17.20;90.45;97092.16;5067934;28;20679;-51
2022/08/09 04:54:20;;;;;;;4.13;3.80;;;;;;;17.71;86.42;97083.56;5058302;28;20207;-51
2022/08/09 04:56:46;;;;;;;6.83;3.73;;;;;;;17.78;86.36;97091.75;5058025;28;20231;-52
2022/08/09 04:59:13;;;;;;;3.90;3.60;;;;;;;17.88;86.21;97090.50;5057698;28;20213;-51
2022/08/09 05:01:40;;;;;;;3.67;3.47;;;;;;;18.04;84.11;97091.38;5057784;28;20295;-51
2022/08/09 05:04:07;;;;;;;6.95;3.40;;;;;;;17.95;85.89;97089.78;5057401;28;20290;-52
2022/08/09 05:06:35;;;;;;;3.53;3.20;;;;;;;17.90;87.37;97093.81;5045333;28;20266;-51
2022/08/09 05:09:02;;;;;;;3.65;3.30;;;;;;;18.15;85.69;97097.16;5044482;28;20592;-51
2022/08/09 05:11:29;;;;;;;4.53;3.30;;;;;;;18.17;85.45;97099.66;5057076;28;20223;-50
2022/08/09 05:13:58;;;;;;;3.38;3.00;;;;;;;18.17;85.92;97097.00;5052799;28;20237;-51
2022/08/09 05:16:27;;;;;;;3.58;3.30;;;;;;;18.58;83.41;97101.00;5066301;28;20230;-52
2022/08/09 05:18:55;;;;;;;6.00;3.40;;;;;;;18.80;83.57;97107.31;5055412;28;20212;-52
2022/08/09 05:21:22;;;;;;;3.22;3.03;;;;;;;19.08;82.53;97110.22;5063087;28;20243;-53
2022/08/09 05:23:50;;;;;;;3.50;3.17;;;;;;;19.20;80.52;97108.75;5058495;28;20290;-52
2022/08/09 05:26:17;;;;;;;3.45;3.13;;;;;;;19.19;81.46;97117.78;5057832;28;20215;-51
2022/08/09 05:28:43;;;;;;;5.10;3.40;;;;;;;19.20;79.65;97109.56;5057956;28;20578;-51
2022/08/09 05:31:10;;;;;;;3.47;3.25;;;;;;;19.30;77.84;97114.66;5057610;28;20242;-51
2022/08/09 05:33:37;;;;;;;4.25;3.10;;;;;;;19.58;75.99;97121.03;5057275;28;20609;-51
2022/08/09 05:36:04;;;;;;;3.70;3.38;;;;;;;19.78;75.36;97121.25;5056976;28;20289;-51
2022/08/09 05:38:32;;;;;;;3.30;3.10;;;;;;;19.87;75.68;97126.31;5056901;28;20242;-51
2022/08/09 05:41:00;;;;;;;5.57;3.05;;;;;;;19.95;73.92;97124.53;5055853;28;20303;-51
2022/08/09 05:43:28;;;;;;;3.17;2.92;;;;;;;20.10;70.03;97128.00;5056896;28;20657;-50
2022/08/09 05:45:57;;;;;;;3.72;2.90;;;;;;;20.22;70.62;97118.44;5054798;28;20272;-51
2022/08/09 05:48:24;;;;;;;3.72;2.90;;;;;;;20.28;67.76;97128.44;5056169;28;20650;-51
2022/08/09 05:50:50;;;;;;;4.43;2.95;;;;;;;20.46;70.78;97122.63;5056825;28;20834;-52
2022/08/09 05:53:17;;;;;;;4.32;3.40;;;;;;;20.46;69.93;97128.84;5057094;28;20214;-52
2022/08/09 05:55:44;;;;;;;3.60;2.90;;;;;;;20.61;69.79;97126.91;5056098;28;20306;-53
2022/08/09 05:58:13;;;;;;;3.55;2.75;;;;;;;20.81;68.43;97133.25;5056578;28;20227;-50
2022/08/09 06:00:42;;;;;;;3.38;2.83;;;;;;;21.10;67.75;97132.28;5056309;28;20290;-52
2022/08/09 06:03:09;;;;;;;2.92;2.72;;;;;;;21.22;65.87;97130.69;5056762;28;20294;-51
2022/08/09 06:05:37;;;;;;;2.53;1.90;;;;;;;21.92;70.99;97131.47;5056643;28;20294;-47
2022/08/09 06:08:04;;;;;;;1.80;1.70;;;;;;;22.96;67.18;97129.97;5056307;28;20259;-47
2022/08/09 06:10:40;;;;;;;1.92;1.83;;;;;;;23.74;63.94;97135.22;5055912;28;20273;-46
2022/08/09 06:13:08;;;;;;;4.20;2.30;;;;;;;24.43;60.52;97133.66;5056281;28;20234;-47
2022/08/09 06:15:36;;;;;;;5.53;2.92;;;;;;;24.87;56.14;97135.44;5058848;28;20230;-47
2022/08/09 06:18:03;;;;;;;3.13;2.92;;;;;;;24.76;50.71;97134.25;5068479;28;20665;-46
2022/08/09 06:20:31;;;;;;;12.30;3.38;;;;;;;25.50;55.02;97136.91;5069441;28;20204;-46
2022/08/09 06:22:58;;;;;;;6.20;2.45;;;;;;;25.81;53.07;97127.00;5068726;28;20514;-48
2022/08/09 06:25:24;;;;;;;4.38;2.50;;;;;;;25.95;52.00;97139.34;5059439;28;20319;-46
2022/08/09 06:27:51;;;;;;;3.47;2.08;;;;;;;26.29;52.89;97141.41;5055256;28;20205;-46
2022/08/09 06:30:18;;;;;;;3.92;2.40;;;;;;;25.88;51.05;97139.41;5056180;28;20294;-47
2022/08/09 06:32:46;;;;;;;2.40;2.20;;;;;;;25.78;49.03;97138.28;5056211;28;20291;-47
2022/08/09 06:35:13;;;;;;;7.55;2.55;;;;;;;26.13;47.90;97142.03;5042809;28;20203;-46
2022/08/09 06:37:41;;;;;;;2.80;2.60;;;;;;;26.31;49.43;97144.72;5056016;28;20231;-45
2022/08/09 06:40:09;;;;;;;6.55;2.67;;;;;;;26.07;47.96;97145.66;5056497;28;20298;-46
2022/08/09 06:42:37;;;;;;;2.15;1.90;;;;;;;26.41;49.87;97142.28;5057212;28;20635;-47
2022/08/09 06:45:04;;;;;;;2.83;2.40;;;;;;;26.31;49.29;97144.72;5055730;28;20230;-46
2022/08/09 06:47:33;;;;;;;2.15;1.92;;;;;;;26.75;50.29;97146.13;5055766;28;20203;-45
2022/08/09 06:50:01;;;;;;;2.55;2.20;;;;;;;26.46;48.72;97142.44;5058877;28;20226;-45
2022/08/09 06:52:28;;;;;;;4.93;2.20;;;;;;;26.55;47.31;97140.19;5059888;28;20235;-47
2022/08/09 06:54:57;;;;;;;2.75;2.55;;;;;;;26.41;46.99;97145.00;5059632;28;20226;-45
2022/08/09 06:57:24;;;;;;;2.65;2.10;;;;;;;26.49;47.22;97150.09;5068222;28;20233;-45
2022/08/09 06:59:52;;;;;;;2.40;2.20;;;;;;;26.78;48.74;97142.16;5063472;28;20302;-46
2022/08/09 07:02:22;;;;;;;4.60;2.35;;;;;;;26.86;49.06;97147.25;5059222;28;20298;-45
2022/08/09 07:04:49;;;;;;;2.95;2.22;;;;;;;26.65;48.06;97154.84;5055248;28;20199;-46
2022/08/09 07:07:17;;;;;;;4.20;2.33;;;;;;;26.90;48.17;97149.28;5054682;28;20234;-46
2022/08/09 07:09:44;;;;;;;2.60;2.40;;;;;;;26.77;46.22;97151.34;5055028;28;20706;-47
2022/08/09 07:12:11;;;;;;;2.42;2.25;;;;;;;27.10;47.50;97149.75;5055505;28;20214;-48
2022/08/09 07:14:38;;;;;;;3.25;2.10;;;;;;;26.82;46.16;97152.31;5044466;28;20223;-47
2022/08/09 07:17:05;;;;;;;2.38;2.10;;;;;;;26.51;47.91;97147.97;5054394;28;20237;-48
2022/08/09 07:19:34;;;;;;;2.28;2.17;;;;;;;26.57;46.55;97152.47;5055568;28;20290;-48
2022/08/09 07:22:01;;;;;;;2.25;2.03;;;;;;;26.18;46.82;97153.06;5055368;28;20221;-46
2022/08/09 07:24:30;;;;;;;5.10;2.33;;;;;;;26.43;47.38;97142.88;5054936;28;20290;-47
2022/08/09 07:26:57;;;;;;;5.15;2.42;;;;;;;26.70;47.23;97151.44;5054587;28;20195;-47
2022/08/09 07:29:24;;;;;;;2.40;2.20;;;;;;;26.32;46.89;97157.25;5054217;28;20213;-48
2022/08/09 07:31:51;;;;;;;6.50;2.55;;;;;;;26.49;47.37;97155.53;5041632;28;20203;-47
2022/08/09 07:34:18;;;;;;;3.08;2.20;;;;;;;26.35;49.18;97151.34;5054807;28;20211;-47
2022/08/09 07:36:44;;;;;;;2.38;2.25;;;;;;;26.76;46.18;97155.09;5053983;28;20207;-47
2022/08/09 07:39:11;;;;;;;2.45;2.30;;;;;;;26.51;47.03;97161.53;5054328;28;20297;-48
2022/08/09 07:41:39;;;;;;;2.20;2.10;;;;;;;26.81;45.91;97155.25;5054289;28;20300;-46
2022/08/09 07:44:06;;;;;;;3.58;2.65;;;;;;;26.77;45.60;97159.50;5054320;28;20282;-46
2022/08/09 07:46:36;;;;;;;3.05;2.50;;;;;;;26.66;48.10;97159.22;5052422;28;20243;-46
2022/08/09 07:49:03;;;;;;;2.60;2.30;;;;;;;26.95;46.33;97156.72;5054678;28;20206;-47
2022/08/09 07:51:30;;;;;;;2.15;2.05;;;;;;;27.04;47.45;97149.88;5054119;28;20297;-47
2022/08/09 07:53:57;;;;;;;3.05;2.33;;;;;;;27.14;46.67;97152.84;5052922;28;20298;-46
2022/08/09 07:56:26;;;;;;;3.22;2.33;;;;;;;27.21;44.24;97148.13;5053685;28;20221;-47
2022/08/09 07:58:54;;;;;;;5.53;2.40;;;;;;;27.30;45.78;97159.47;5054073;28;20226;-47
2022/08/09 08:01:20;;;;;;;2.10;2.00;;;;;;;27.33;45.58;97159.81;5053940;28;20214;-48
2022/08/09 08:03:47;;;;;;;2.50;2.30;;;;;;;27.43;44.33;97154.63;5053998;28;20742;-47
2022/08/09 08:06:14;;;;;;;4.53;2.53;;;;;;;27.46;44.05;97151.47;5054217;28;20309;-48
2022/08/09 08:08:40;;;;;;;2.47;2.25;;;;;;;27.47;43.82;97146.84;5053267;28;20282;-47
2022/08/09 08:11:07;;;;;;;4.45;2.00;;;;;;;27.59;44.32;97150.41;5053915;28;20211;-48
2022/08/09 08:13:34;;;;;;;4.95;2.40;;;;;;;27.89;45.02;97142.06;5051073;28;20632;-47
2022/08/09 08:16:02;;;;;;;2.85;2.00;;;;;;;27.66;44.52;97143.78;5044216;28;20213;-48
2022/08/09 08:18:29;;;;;;;2.30;2.10;;;;;;;27.68;45.26;97147.06;5054299;28;20218;-46
2022/08/09 08:20:55;;;;;;;7.60;2.22;;;;;;;27.98;43.04;97143.34;5057819;28;20289;-46
2022/08/09 08:23:23;;;;;;;2.30;2.10;;;;;;;27.90;43.34;97139.13;5057922;28;20302;-46
2022/08/09 08:25:50;;;;;;;2.40;2.00;;;;;;;27.86;44.15;97148.81;5057601;28;20206;-48
2022/08/09 08:28:19;;;;;;;6.28;2.20;;;;;;;28.00;41.51;97135.75;5057851;28;20214;-47
2022/08/09 08:30:46;;;;;;;1.75;1.65;;;;;;;28.13;41.55;97151.81;5057124;28;20203;-47
2022/08/09 08:33:15;;;;;;;2.80;1.83;;;;;;;28.03;40.69;97148.88;5057964;28;20238;-47
2022/08/09 08:35:42;;;;;;;2.72;2.20;;;;;;;28.06;40.65;97141.06;5057435;28;20199;-46
2022/08/09 08:38:09;;;;;;;2.20;2.00;;;;;;;28.30;41.50;97133.69;5057298;28;20305;-46
2022/08/09 08:40:35;;;;;;;4.10;2.30;;;;;;;28.36;42.87;97138.16;5057381;28;20229;-46
2022/08/09 08:43:03;;;;;;;3.40;2.10;;;;;;;28.13;44.10;97140.94;5057357;28;20298;-46
2022/08/09 08:45:33;;;;;;;1.90;1.80;;;;;;;28.42;41.97;97148.06;5056824;28;20314;-47
2022/08/09 08:48:00;;;;;;;5.82;2.17;;;;;;;28.63;40.78;97136.47;5057820;28;20245;-48
2022/08/09 08:50:28;;;;;;;3.53;2.10;;;;;;;28.60;42.36;97136.97;5057950;28;20297;-47
2022/08/09 08:52:54;;;;;;;2.10;2.00;;;;;;;28.72;42.44;97141.56;5057889;28;20218;-47
2022/08/09 08:55:21;;;;;;;2.72;2.03;;;;;;;28.69;40.39;97152.94;5057459;28;20234;-48
2022/08/09 08:57:49;;;;;;;4.28;2.20;;;;;;;28.85;39.88;97142.06;5057841;28;20263;-47
2022/08/09 09:00:16;;;;;;;5.75;2.22;;;;;;;28.92;41.39;97158.22;5058455;28;20290;-47
2022/08/09 09:02:44;;;;;;;3.40;2.38;;;;;;;28.43;40.76;97148.88;5067755;28;20281;-47
2022/08/09 09:05:12;;;;;;;1.88;1.77;;;;;;;28.58;41.15;97155.44;5076064;28;20199;-47
2022/08/09 09:07:43;;;;;;;4.32;2.00;;;;;;;28.74;41.05;97153.00;5068736;28;20203;-47
2022/08/09 09:10:11;;;;;;;1.95;1.80;;;;;;;28.80;41.35;97157.50;5057158;28;20195;-47
2022/08/09 09:12:37;;;;;;;5.05;1.67;;;;;;;28.74;39.60;97150.28;5056372;28;20199;-47
2022/08/09 09:15:05;;;;;;;1.88;1.77;;;;;;;28.76;38.91;97159.88;5056130;28;20290;-47
2022/08/09 09:17:33;;;;;;;1.90;1.80;;;;;;;29.03;40.06;97150.00;5056902;28;20223;-48
2022/08/09 09:20:02;;;;;;;2.60;1.58;;;;;;;28.76;39.25;97159.88;5057079;28;20245;-49
2022/08/09 09:22:50;;;;;;;1.70;1.60;;;;;;;28.96;39.62;97154.78;5056750;28;20643;-48
2022/08/09 09:25:30;;;;;;;4.03;1.60;;;;;;;29.16;39.36;97149.66;5056876;28;20301;-47
2022/08/09 09:27:57;;;;;;;2.05;1.90;;;;;;;29.29;39.07;97151.25;5055992;28;20298;-47
2022/08/09 09:30:24;;;;;;;4.53;2.58;;;;;;;29.24;39.02;97151.13;5055743;28;20294;-49
2022/08/09 09:33:05;;;;;;;2.03;1.58;;;;;;;29.19;37.13;97147.53;5056356;28;20195;-48
2022/08/09 09:35:32;;;;;;;2.13;1.90;;;;;;;29.24;39.30;97151.13;5056006;28;20219;-47
2022/08/09 09:38:00;;;;;;;1.70;1.60;;;;;;;29.40;39.16;97153.06;5056690;28;20310;-47
2022/08/09 09:40:43;;;;;;;2.83;1.80;;;;;;;29.31;37.43;97154.56;5056393;28;20214;-47
2022/08/09 09:43:10;;;;;;;2.83;1.70;;;;;;;29.54;38.42;97151.66;5056043;28;20643;-50
2022/08/09 09:45:48;;;;;;;3.22;1.90;;;;;;;29.63;38.47;97150.13;5056050;28;20330;-51
2022/08/09 09:48:18;;;;;;;1.88;1.77;;;;;;;29.59;37.60;97154.44;5054861;28;20296;-51
2022/08/09 09:50:46;;;;;;;3.22;1.90;;;;;;;29.83;37.00;97149.56;5055899;28;20295;-50
2022/08/09 09:53:21;;;;;;;2.13;1.60;;;;;;;29.68;34.89;97156.72;5056359;28;20282;-49
2022/08/09 09:55:57;;;;;;;3.25;1.58;;;;;;;29.52;34.88;97142.88;5055282;28;20281;-50
2022/08/09 09:58:43;;;;;;;3.80;1.98;;;;;;;29.72;36.01;97146.97;5056010;28;20297;-49
2022/08/09 10:01:17;;;;;;;4.75;1.98;;;;;;;29.91;36.99;97151.06;5044867;28;20662;-47
2022/08/09 10:03:45;;;;;;;1.98;1.40;;;;;;;29.94;34.40;97151.38;5055999;28;20699;-49
2022/08/09 10:06:13;;;;;;;2.55;1.45;;;;;;;29.91;35.13;97145.59;5055335;28;20203;-49
2022/08/09 10:08:43;;;;;;;1.23;1.13;;;;;;;30.00;34.86;97144.09;5055913;28;20286;-49
2022/08/09 10:11:21;;;;;;;2.15;1.73;;;;;;;30.06;35.26;97151.25;5056017;28;20282;-48
2022/08/09 10:13:48;;;;;;;2.03;1.80;;;;;;;30.31;35.75;97145.28;5055233;28;20640;-47
2022/08/09 10:16:17;;;;;;;2.67;1.40;;;;;;;30.20;34.62;97144.34;5055929;28;20318;-48
2022/08/09 10:18:51;;;;;;;2.08;1.70;;;;;;;30.35;34.66;97146.41;5055775;28;20269;-51
2022/08/09 10:21:19;;;;;;;2.17;1.80;;;;;;;30.26;33.68;97159.69;5055527;28;20249;-49
2022/08/09 10:23:48;;;;;;;2.03;1.90;;;;;;;30.03;33.66;97154.50;5055660;28;20595;-57
2022/08/09 10:26:15;;;;;;;1.50;1.40;;;;;;;30.11;34.85;97145.88;5056252;28;20202;-48
2022/08/09 10:28:43;;;;;;;1.58;1.48;;;;;;;30.29;34.12;97142.00;5055770;28;20203;-48
2022/08/09 10:31:11;;;;;;;2.83;1.70;;;;;;;30.55;34.96;97142.03;5055751;28;20219;-48
2022/08/09 10:33:38;;;;;;;2.42;1.70;;;;;;;30.43;33.94;97148.72;5055568;28;20230;-49
2022/08/09 10:36:06;;;;;;;2.08;1.40;;;;;;;30.50;33.40;97143.91;5055530;28;20253;-47
2022/08/09 10:38:33;;;;;;;3.17;1.50;;;;;;;30.31;34.10;97146.09;5055672;28;20309;-48
2022/08/09 10:41:01;;;;;;;1.65;1.55;;;;;;;30.50;34.81;97139.22;5055350;28;20311;-46
2022/08/09 10:43:28;;;;;;;2.55;1.42;;;;;;;30.56;35.81;97140.94;5046324;28;20712;-47
2022/08/09 10:45:55;;;;;;;1.98;1.75;;;;;;;30.17;34.94;97144.03;5054082;28;20321;-48
2022/08/09 10:48:26;;;;;;;1.35;1.30;;;;;;;30.44;35.43;97139.44;5055414;28;20289;-48
2022/08/09 10:51:10;;;;;;;1.85;1.67;;;;;;;30.36;35.26;97148.06;5055439;28;20294;-49
2022/08/09 10:54:01;;;;;;;2.28;1.63;;;;;;;30.00;34.43;97146.84;5055164;28;20207;-47
2022/08/09 10:56:32;;;;;;;4.32;1.58;;;;;;;29.88;35.25;97146.94;5048982;28;20203;-48
2022/08/09 10:59:02;;;;;;;4.03;1.40;;;;;;;29.92;33.76;97141.81;5055208;28;20269;-47
2022/08/09 11:01:41;;;;;;;1.50;1.38;;;;;;;29.83;34.35;97144.09;5055281;28;20207;-48
2022/08/09 11:04:22;;;;;;;2.28;1.70;;;;;;;29.94;34.98;97135.00;5070688;28;20203;-48
2022/08/09 11:07:10;;;;;;;1.63;1.45;;;;;;;30.24;34.58;97129.09;5054834;28;20293;-46
2022/08/09 11:09:51;;;;;;;5.18;1.50;;;;;;;30.47;34.17;97134.28;5056479;28;20282;-47
2022/08/09 11:12:22;;;;;;;1.60;1.50;;;;;;;30.28;33.47;97137.59;5070754;28;20266;-47
2022/08/09 11:14:53;;;;;;;1.73;1.63;;;;;;;30.19;35.14;97122.75;5052886;28;20195;-47
2022/08/09 11:17:53;;;;;;;4.22;1.60;;;;;;;30.29;33.64;97131.88;5063162;28;20210;-49
2022/08/09 11:20:38;;;;;;;2.60;1.60;;;;;;;30.59;34.16;97126.78;5055535;28;20211;-47
2022/08/09 11:23:05;;;;;;;2.35;1.42;;;;;;;30.66;33.53;97131.19;5054531;28;20213;-47
2022/08/09 11:25:45;;;;;;;2.70;2.00;;;;;;;30.71;34.05;97129.38;5054605;28;20203;-46
2022/08/09 11:28:40;;;;;;;5.68;1.60;;;;;;;30.81;34.91;97140.38;5054395;28;20203;-48
2022/08/09 11:31:43;;;;;;;2.65;1.40;;;;;;;30.67;33.38;97130.97;5053146;28;20632;-48
2022/08/09 11:34:39;;;;;;;1.90;1.60;;;;;;;30.44;32.96;97134.81;5054846;28;20293;-49
2022/08/09 11:37:08;;;;;;;2.20;2.00;;;;;;;30.59;35.20;97131.41;5054152;28;20291;-49
2022/08/09 11:40:02;;;;;;;1.50;1.40;;;;;;;30.58;33.59;97125.13;5053764;28;20233;-48
2022/08/09 11:42:42;;;;;;;4.05;1.60;;;;;;;29.97;33.86;97117.34;5053661;28;20627;-47
2022/08/09 11:45:21;;;;;;;4.53;2.00;;;;;;;30.25;34.68;97130.75;5041826;28;20241;-49